Time;durP1;ratioP1;P1;durP2;ratioP2;P2;SDS_P1;SDS_P2;PMS_P1;PMS_P2;Temp;Humidity;BMP_temperature;BMP_pressure;BME280_temperature;BME280_humidity;BME280_pressure;Samples;Min_cycle;Max_cycle;Signal;HPM_P1;HPM_P2
2023/11/06 00:01:34;;;;;;;10.32;1.88;;;;;;;9.70;100.00;98836.19;6276381;28;20088;-72
2023/11/06 00:04:36;;;;;;;3.35;1.38;;;;;;;9.62;100.00;98828.09;6278404;28;20064;-73
2023/11/06 00:07:38;;;;;;;6.30;1.60;;;;;;;9.61;100.00;98839.56;6276372;28;20084;-73
2023/11/06 00:10:40;;;;;;;1.95;1.38;;;;;;;9.51;100.00;98846.50;6277863;28;20049;-72
2023/11/06 00:13:41;;;;;;;3.92;1.85;;;;;;;9.52;100.00;98851.59;6275451;28;20045;-72
2023/11/06 00:16:43;;;;;;;4.22;1.73;;;;;;;9.52;100.00;98848.97;6276112;28;20052;-72
2023/11/06 00:19:44;;;;;;;1.23;1.13;;;;;;;9.52;100.00;98853.41;6276222;28;20049;-72
2023/11/06 00:22:47;;;;;;;8.38;1.42;;;;;;;9.53;100.00;98865.53;6275423;28;20052;-73
2023/11/06 00:25:49;;;;;;;3.80;1.75;;;;;;;9.44;100.00;98867.09;6278225;28;20052;-73
2023/11/06 00:28:50;;;;;;;1.38;1.20;;;;;;;9.40;100.00;98865.66;6275850;28;20053;-73
2023/11/06 00:31:52;;;;;;;2.85;1.40;;;;;;;9.37;100.00;98869.38;6275589;28;20049;-72
2023/11/06 00:34:54;;;;;;;3.22;1.98;;;;;;;9.43;100.00;98877.72;6272843;28;20049;-72
2023/11/06 00:37:57;;;;;;;3.08;1.60;;;;;;;9.36;100.00;98888.69;6274623;28;20045;-74
2023/11/06 00:40:58;;;;;;;5.63;1.58;;;;;;;9.37;100.00;98889.53;6274015;28;20138;-72
2023/11/06 00:44:00;;;;;;;2.15;1.35;;;;;;;9.31;100.00;98896.09;6274812;28;20045;-73
2023/11/06 00:47:01;;;;;;;3.65;1.40;;;;;;;9.27;100.00;98901.69;6274155;28;20049;-72
2023/11/06 00:50:03;;;;;;;8.75;1.40;;;;;;;9.20;100.00;98897.84;6274608;28;20048;-72
2023/11/06 00:53:07;;;;;;;3.83;1.33;;;;;;;9.17;100.00;98903.31;6273344;28;20072;-72
2023/11/06 00:56:09;;;;;;;16.63;1.83;;;;;;;9.13;100.00;98893.09;6273389;28;20057;-73
2023/11/06 00:59:10;;;;;;;3.08;1.25;;;;;;;9.11;100.00;98905.47;6274371;28;20048;-73
2023/11/06 01:02:12;;;;;;;10.07;1.70;;;;;;;9.09;100.00;98907.38;6271746;28;20045;-72
2023/11/06 01:05:13;;;;;;;2.60;1.10;;;;;;;9.14;100.00;98917.53;6274576;28;20052;-73
2023/11/06 01:08:16;;;;;;;2.33;1.38;;;;;;;9.12;100.00;98916.78;6275064;28;20056;-72
2023/11/06 01:11:18;;;;;;;4.68;1.65;;;;;;;9.14;100.00;98914.91;6274815;28;20045;-73
2023/11/06 01:14:19;;;;;;;1.20;0.80;;;;;;;9.13;100.00;98919.31;6275109;28;20041;-73
2023/11/06 01:17:20;;;;;;;4.63;1.20;;;;;;;9.15;100.00;98916.56;6275036;28;20075;-72
2023/11/06 01:20:22;;;;;;;2.42;1.40;;;;;;;9.09;100.00;98925.72;6275222;28;20049;-73
2023/11/06 01:23:25;;;;;;;2.20;0.90;;;;;;;9.08;100.00;98924.06;6275465;28;20049;-72
2023/11/06 01:26:26;;;;;;;2.03;1.08;;;;;;;9.05;100.00;98934.78;6280206;28;20091;-72
2023/11/06 01:29:27;;;;;;;3.72;0.90;;;;;;;9.06;100.00;98949.53;6280079;28;20060;-73
2023/11/06 01:32:29;;;;;;;10.77;1.10;;;;;;;9.12;100.00;98961.34;6279913;28;20048;-73
2023/11/06 01:35:32;;;;;;;2.08;0.82;;;;;;;9.12;100.00;98963.94;6279946;28;20056;-73
2023/11/06 01:38:35;;;;;;;2.58;1.23;;;;;;;9.14;100.00;98967.31;6280168;28;20095;-72
2023/11/06 01:41:36;;;;;;;3.83;1.08;;;;;;;9.13;100.00;98966.47;6279725;28;20053;-72
2023/11/06 01:44:37;;;;;;;7.65;1.65;;;;;;;9.14;100.00;98977.78;6279768;28;20066;-71
2023/11/06 01:47:39;;;;;;;5.68;1.00;;;;;;;9.14;100.00;98981.25;6279788;28;20053;-71
2023/11/06 01:50:41;;;;;;;2.45;1.10;;;;;;;9.17;100.00;98968.84;6279329;28;20048;-73
2023/11/06 01:53:44;;;;;;;9.98;1.65;;;;;;;9.07;100.00;98969.53;6279266;28;20045;-73
2023/11/06 01:56:45;;;;;;;0.82;0.77;;;;;;;9.11;100.00;98980.63;6279299;28;20373;-72
2023/11/06 01:59:48;;;;;;;1.60;0.88;;;;;;;9.14;100.00;98986.47;6279540;28;20068;-73
2023/11/06 02:02:49;;;;;;;3.58;1.10;;;;;;;9.16;100.00;98991.59;6279107;28;20448;-73
2023/11/06 02:05:51;;;;;;;7.32;1.02;;;;;;;9.19;100.00;99008.88;6279241;28;20357;-73
2023/11/06 02:08:54;;;;;;;4.20;0.98;;;;;;;9.27;100.00;98990.81;6279225;28;20048;-72
2023/11/06 02:11:57;;;;;;;6.30;1.40;;;;;;;9.30;100.00;98998.41;6279090;28;20053;-72
2023/11/06 02:14:59;;;;;;;1.60;0.77;;;;;;;9.28;100.00;98997.72;6279229;28;20425;-72
2023/11/06 02:18:00;;;;;;;7.05;1.70;;;;;;;9.25;100.00;98998.75;6278860;28;20467;-72
2023/11/06 02:21:02;;;;;;;5.57;0.88;;;;;;;9.28;100.00;99006.41;6274512;28;20048;-71
2023/11/06 02:24:06;;;;;;;4.10;1.33;;;;;;;9.32;100.00;99014.88;6278600;28;20081;-71
2023/11/06 02:27:08;;;;;;;8.55;1.73;;;;;;;9.34;100.00;99021.66;6278956;28;20068;-73
2023/11/06 02:30:10;;;;;;;3.75;1.38;;;;;;;9.39;100.00;99037.03;6278662;28;20102;-74
2023/11/06 02:33:12;;;;;;;11.02;1.30;;;;;;;9.40;100.00;99033.47;6278735;28;20045;-74
2023/11/06 02:36:13;;;;;;;5.82;1.27;;;;;;;9.40;100.00;99046.56;6277233;28;20041;-73
2023/11/06 02:39:16;;;;;;;6.30;1.33;;;;;;;9.46;100.00;99046.13;6278528;28;20045;-72
2023/11/06 02:42:17;;;;;;;3.78;1.42;;;;;;;9.50;100.00;99059.84;6278042;28;20369;-72
2023/11/06 02:45:19;;;;;;;2.28;1.15;;;;;;;9.54;100.00;99049.00;6278297;28;20049;-71
2023/11/06 02:48:20;;;;;;;4.50;1.17;;;;;;;9.59;100.00;99059.13;6278225;28;20052;-71
2023/11/06 02:51:21;;;;;;;4.68;1.90;;;;;;;9.60;100.00;99069.50;6277734;28;20053;-73
2023/11/06 02:54:24;;;;;;;8.55;1.10;;;;;;;9.59;100.00;99080.94;6278235;28;20049;-72
2023/11/06 02:57:26;;;;;;;2.53;1.40;;;;;;;9.58;100.00;99079.28;6277943;28;20049;-72
2023/11/06 03:00:27;;;;;;;5.43;1.55;;;;;;;9.50;100.00;99089.50;6277991;28;20061;-73
2023/11/06 03:03:28;;;;;;;3.05;0.98;;;;;;;9.50;100.00;99084.28;6277583;28;20049;-71
2023/11/06 03:06:31;;;;;;;3.78;1.35;;;;;;;9.51;100.00;99088.56;6278030;28;20056;-74
2023/11/06 03:09:33;;;;;;;6.70;1.42;;;;;;;9.48;100.00;99090.56;6277805;28;20576;-72
2023/11/06 03:12:35;;;;;;;8.30;1.40;;;;;;;9.44;100.00;99092.56;6277652;28;20045;-74
2023/11/06 03:15:36;;;;;;;5.53;1.40;;;;;;;9.43;100.00;99101.41;6277570;28;20061;-71
2023/11/06 03:18:37;;;;;;;6.45;1.17;;;;;;;9.44;100.00;99103.06;6277780;28;20052;-73
2023/11/06 03:21:39;;;;;;;9.43;1.83;;;;;;;9.45;100.00;99111.75;6277251;28;20056;-72
2023/11/06 03:24:42;;;;;;;2.47;1.17;;;;;;;9.48;100.00;99107.13;6277248;28;20044;-71
2023/11/06 03:27:43;;;;;;;2.80;1.35;;;;;;;9.46;100.00;99111.66;6277330;28;20044;-71
2023/11/06 03:30:45;;;;;;;7.57;1.13;;;;;;;9.50;100.00;99110.50;6277220;28;20055;-72
2023/11/06 03:33:46;;;;;;;1.98;1.00;;;;;;;9.54;100.00;99126.84;6277218;28;20134;-72
2023/11/06 03:36:48;;;;;;;2.28;1.13;;;;;;;9.52;100.00;99121.69;6277110;28;20056;-71
2023/11/06 03:39:50;;;;;;;2.70;1.20;;;;;;;9.55;100.00;99126.72;6277055;28;20354;-73
2023/11/06 03:42:52;;;;;;;5.22;1.63;;;;;;;9.59;100.00;99127.31;6276087;28;20346;-73
2023/11/06 03:45:53;;;;;;;7.32;1.45;;;;;;;9.54;100.00;99137.31;6276816;28;20051;-72
2023/11/06 03:48:54;;;;;;;6.38;1.17;;;;;;;9.50;100.00;99136.72;6275908;28;20044;-72
2023/11/06 03:51:56;;;;;;;2.92;0.95;;;;;;;9.52;100.00;99140.03;6276342;28;20379;-73
2023/11/06 03:54:59;;;;;;;4.85;1.10;;;;;;;9.51;100.00;99143.63;6276857;28;20053;-73
2023/11/06 03:58:00;;;;;;;4.43;1.50;;;;;;;9.53;100.00;99154.00;6276463;28;20048;-72
2023/11/06 04:01:02;;;;;;;7.90;1.10;;;;;;;9.50;100.00;99154.25;6276466;28;20472;-73
2023/11/06 04:04:04;;;;;;;6.97;1.40;;;;;;;9.56;100.00;99161.63;6276394;28;20048;-74
2023/11/06 04:07:06;;;;;;;3.17;1.48;;;;;;;9.52;100.00;99168.06;6276664;28;20048;-73
2023/11/06 04:10:10;;;;;;;6.70;1.40;;;;;;;9.38;100.00;99169.91;6276318;28;20063;-73
2023/11/06 04:13:12;;;;;;;5.00;1.50;;;;;;;9.14;100.00;99163.84;6276288;28;20045;-74
2023/11/06 04:16:14;;;;;;;8.95;1.10;;;;;;;9.08;100.00;99166.91;6276409;28;20056;-73
2023/11/06 04:19:15;;;;;;;6.30;1.63;;;;;;;9.06;100.00;99168.81;6276082;28;20052;-73
2023/11/06 04:22:16;;;;;;;5.13;1.58;;;;;;;9.02;100.00;99176.06;6275794;28;20452;-73
2023/11/06 04:25:19;;;;;;;14.80;1.52;;;;;;;9.00;100.00;99177.97;6275959;28;20049;-74
2023/11/06 04:28:21;;;;;;;9.30;1.92;;;;;;;9.01;100.00;99177.00;6276072;28;20045;-74
2023/11/06 04:31:22;;;;;;;3.35;1.20;;;;;;;9.04;100.00;99175.97;6275542;28;20465;-73
2023/11/06 04:34:23;;;;;;;9.05;1.42;;;;;;;9.04;100.00;99184.66;6275913;28;20049;-74
2023/11/06 04:37:25;;;;;;;3.22;1.52;;;;;;;9.08;100.00;99187.88;6275172;28;20052;-74
2023/11/06 04:40:28;;;;;;;3.22;1.52;;;;;;;9.09;100.00;99187.78;6275823;28;20049;-73
2023/11/06 04:43:30;;;;;;;3.20;1.70;;;;;;;9.11;100.00;99191.09;6275441;28;20048;-74
2023/11/06 04:46:31;;;;;;;1.83;1.17;;;;;;;9.17;100.00;99195.06;6275385;28;20464;-74
2023/11/06 04:49:33;;;;;;;4.70;1.67;;;;;;;9.19;100.00;99201.03;6275510;28;20060;-74
2023/11/06 04:52:34;;;;;;;9.15;2.78;;;;;;;9.20;100.00;99197.47;6274896;28;20058;-74
2023/11/06 04:55:37;;;;;;;5.05;1.75;;;;;;;9.18;100.00;99212.47;6275507;28;20056;-74
2023/11/06 04:58:39;;;;;;;6.20;1.70;;;;;;;9.19;100.00;99210.69;6274824;28;20053;-74
2023/11/06 05:01:40;;;;;;;6.60;1.73;;;;;;;9.28;100.00;99213.47;6274724;28;20045;-73
2023/11/06 05:04:43;;;;;;;2.72;1.23;;;;;;;9.32;100.00;99227.22;6275336;28;20052;-75
2023/11/06 05:07:45;;;;;;;2.70;1.17;;;;;;;9.32;100.00;99235.06;6275369;28;20052;-73
2023/11/06 05:10:48;;;;;;;5.95;1.63;;;;;;;9.36;100.00;99234.75;6275128;28;20132;-74
2023/11/06 05:13:51;;;;;;;7.85;1.73;;;;;;;9.35;100.00;99234.84;6274999;28;20452;-74
2023/11/06 05:16:53;;;;;;;4.35;1.40;;;;;;;9.33;100.00;99248.06;6274943;28;20056;-72
2023/11/06 05:19:54;;;;;;;4.38;1.63;;;;;;;9.32;100.00;99237.69;6275262;28;20053;-73
2023/11/06 05:22:56;;;;;;;2.53;1.30;;;;;;;9.31;100.00;99236.88;6274771;28;20059;-74
2023/11/06 05:25:58;;;;;;;5.40;1.40;;;;;;;9.40;100.00;99246.69;6272967;28;20049;-74
2023/11/06 05:29:00;;;;;;;4.30;1.60;;;;;;;9.41;100.00;99244.91;6266333;28;20130;-73
2023/11/06 05:32:01;;;;;;;1.50;1.17;;;;;;;9.38;100.00;99243.31;6255846;28;20058;-74
2023/11/06 05:35:03;;;;;;;3.10;1.20;;;;;;;9.39;100.00;99255.47;6267956;28;20040;-73
2023/11/06 05:38:04;;;;;;;6.72;1.58;;;;;;;9.37;100.00;99252.16;6274769;28;20045;-74
2023/11/06 05:41:09;;;;;;;8.25;1.38;;;;;;;9.42;100.00;99258.84;6274892;28;20450;-73
2023/11/06 05:44:13;;;;;;;6.85;1.48;;;;;;;9.40;100.00;99256.31;6274773;28;20452;-74
2023/11/06 05:47:14;;;;;;;2.55;1.10;;;;;;;9.49;100.00;99274.00;6274872;28;20130;-73
2023/11/06 05:50:16;;;;;;;6.53;1.52;;;;;;;9.49;100.00;99265.28;6270541;28;20049;-73
2023/11/06 05:53:19;;;;;;;2.88;1.08;;;;;;;9.47;100.00;99268.03;6258859;28;20052;-72
2023/11/06 05:56:22;;;;;;;4.68;1.42;;;;;;;9.46;100.00;99278.66;6260480;28;20467;-73
2023/11/06 05:59:23;;;;;;;6.22;1.83;;;;;;;9.39;100.00;99275.63;6273785;28;20049;-72
2023/11/06 06:02:25;;;;;;;2.65;1.00;;;;;;;9.43;100.00;99284.09;6262070;28;20053;-76
2023/11/06 06:05:27;;;;;;;3.90;0.95;;;;;;;9.45;100.00;99295.31;6249695;28;20592;-77
2023/11/06 06:08:28;;;;;;;1.60;0.98;;;;;;;9.46;100.00;99295.22;6270785;28;20053;-76
2023/11/06 06:11:36;;;;;;;4.05;1.35;;;;;;;9.46;100.00;99304.88;6276350;28;20049;-77
2023/11/06 06:14:37;;;;;;;4.40;1.95;;;;;;;9.51;100.00;99311.44;6279034;28;20045;-77
2023/11/06 06:17:40;;;;;;;2.33;1.08;;;;;;;9.54;100.00;99313.03;6278921;28;20056;-77
2023/11/06 06:20:41;;;;;;;2.65;0.80;;;;;;;9.54;100.00;99318.28;6279105;28;20102;-72
2023/11/06 06:23:42;;;;;;;1.98;1.10;;;;;;;9.58;100.00;99319.69;6278203;28;20045;-73
2023/11/06 06:26:45;;;;;;;4.43;1.25;;;;;;;9.60;100.00;99325.69;6279091;28;20059;-72
2023/11/06 06:29:46;;;;;;;8.50;1.13;;;;;;;9.58;100.00;99338.94;6278486;28;20045;-72
2023/11/06 06:32:48;;;;;;;2.03;0.90;;;;;;;9.59;100.00;99343.22;6278666;28;20060;-72
2023/11/06 06:35:49;;;;;;;4.03;1.33;;;;;;;9.55;100.00;99349.63;6278480;28;20052;-73
2023/11/06 06:38:51;;;;;;;2.45;1.08;;;;;;;9.53;100.00;99351.50;6268821;28;20048;-72
2023/11/06 06:41:53;;;;;;;5.30;1.15;;;;;;;9.65;100.00;99352.41;6272280;28;20041;-72
2023/11/06 06:44:55;;;;;;;1.27;0.85;;;;;;;9.54;100.00;99361.06;6272348;28;20045;-72
2023/11/06 06:47:56;;;;;;;4.75;1.33;;;;;;;9.54;100.00;99368.94;6266921;28;20041;-73
2023/11/06 06:50:58;;;;;;;4.03;1.40;;;;;;;9.53;100.00;99375.09;6265533;28;20045;-73
2023/11/06 06:53:59;;;;;;;3.17;1.10;;;;;;;9.46;100.00;99376.50;6271968;28;20149;-76
2023/11/06 06:57:03;;;;;;;3.00;1.13;;;;;;;9.45;100.00;99382.69;6266278;28;20668;-77
2023/11/06 07:00:05;;;;;;;2.67;0.80;;;;;;;9.48;100.00;99394.75;6264561;28;20045;-73
2023/11/06 07:03:07;;;;;;;1.98;0.93;;;;;;;9.49;100.00;99412.16;6266046;28;20056;-73
2023/11/06 07:06:10;;;;;;;7.32;1.10;;;;;;;9.48;100.00;99410.47;6266390;28;20048;-72
2023/11/06 07:09:11;;;;;;;4.00;1.17;;;;;;;9.46;100.00;99409.75;6270433;28;20049;-72
2023/11/06 07:12:14;;;;;;;3.88;0.90;;;;;;;9.50;100.00;99414.69;6263913;28;20430;-72
2023/11/06 07:15:16;;;;;;;6.03;1.13;;;;;;;9.54;100.00;99410.91;6265198;28;20060;-73
2023/11/06 07:18:18;;;;;;;1.40;1.00;;;;;;;9.62;100.00;99419.03;6264347;28;20057;-74
2023/11/06 07:21:20;;;;;;;5.65;1.30;;;;;;;9.65;100.00;99416.22;6261431;28;20064;-72
2023/11/06 07:24:21;;;;;;;1.17;0.95;;;;;;;9.69;100.00;99426.50;6252560;28;20434;-72
2023/11/06 07:27:24;;;;;;;2.13;0.88;;;;;;;9.61;100.00;99429.66;6252711;28;20049;-72
2023/11/06 07:30:26;;;;;;;2.72;1.38;;;;;;;9.62;100.00;99433.94;6252481;28;20046;-71
2023/11/06 07:33:27;;;;;;;1.67;1.13;;;;;;;9.59;100.00;99439.44;6260488;28;20055;-74
2023/11/06 07:36:29;;;;;;;7.90;1.42;;;;;;;9.53;100.00;99435.41;6260289;28;20057;-72
2023/11/06 07:39:31;;;;;;;2.20;1.02;;;;;;;9.59;100.00;99437.63;6266623;28;20053;-72
2023/11/06 07:42:34;;;;;;;7.40;2.03;;;;;;;9.59;100.00;99439.44;6276663;28;20055;-72
2023/11/06 07:45:35;;;;;;;3.92;1.30;;;;;;;9.58;100.00;99441.22;6276959;28;20055;-72
2023/11/06 07:48:37;;;;;;;4.00;1.13;;;;;;;9.64;100.00;99455.69;6276982;28;20056;-75
2023/11/06 07:51:38;;;;;;;5.15;1.50;;;;;;;9.62;100.00;99454.94;6276138;28;20133;-73
2023/11/06 07:54:40;;;;;;;9.95;1.35;;;;;;;9.66;100.00;99453.75;6276703;28;20520;-72
2023/11/06 07:57:45;;;;;;;5.70;1.27;;;;;;;9.67;100.00;99458.06;6276361;28;20135;-73
2023/11/06 08:00:46;;;;;;;3.17;1.30;;;;;;;9.68;100.00;99464.16;6274826;28;20376;-75
2023/11/06 08:03:48;;;;;;;1.52;0.90;;;;;;;9.76;100.00;99457.41;6272420;28;20052;-73
2023/11/06 08:06:49;;;;;;;1.90;1.00;;;;;;;9.81;100.00;99463.19;6275699;28;20179;-73
2023/11/06 08:09:50;;;;;;;4.38;1.33;;;;;;;9.81;100.00;99480.69;6275884;28;20057;-72
2023/11/06 08:12:54;;;;;;;2.83;1.30;;;;;;;9.78;100.00;99475.69;6271764;28;20045;-74
2023/11/06 08:15:55;;;;;;;3.25;1.30;;;;;;;9.89;100.00;99492.34;6280271;28;20052;-73
2023/11/06 08:18:58;;;;;;;1.80;0.90;;;;;;;9.90;100.00;99490.53;6286112;28;20436;-73
2023/11/06 08:21:59;;;;;;;2.78;0.90;;;;;;;9.90;100.00;99488.78;6286608;28;20049;-71
2023/11/06 08:25:01;;;;;;;4.60;1.05;;;;;;;9.93;100.00;99507.88;6281357;28;20052;-73
2023/11/06 08:28:04;;;;;;;4.15;1.25;;;;;;;9.98;100.00;99511.84;6275906;28;20040;-71
2023/11/06 08:31:05;;;;;;;6.88;1.20;;;;;;;10.03;100.00;99520.22;6279701;28;20056;-71
2023/11/06 08:34:07;;;;;;;4.97;1.27;;;;;;;10.04;100.00;99526.34;6277830;28;20048;-71
2023/11/06 08:37:09;;;;;;;7.72;1.58;;;;;;;10.00;100.00;99527.50;6278752;28;20051;-72
2023/11/06 08:40:14;;;;;;;8.65;1.90;;;;;;;10.01;100.00;99539.66;6279727;28;20127;-71
2023/11/06 08:43:19;;;;;;;2.75;0.85;;;;;;;9.99;100.00;99544.16;6275317;28;20459;-74
2023/11/06 08:46:21;;;;;;;2.78;1.13;;;;;;;10.04;100.00;99542.94;6279114;28;20060;-72
2023/11/06 08:49:22;;;;;;;8.10;1.13;;;;;;;10.04;100.00;99548.19;6279782;28;20064;-73
2023/11/06 08:52:24;;;;;;;5.93;1.10;;;;;;;10.08;100.00;99552.25;6279132;28;20060;-72
2023/11/06 08:55:25;;;;;;;5.40;1.08;;;;;;;10.10;100.00;99552.97;6274606;28;20047;-72
2023/11/06 08:58:28;;;;;;;1.73;0.77;;;;;;;10.06;100.00;99569.88;6273841;28;20084;-72
2023/11/06 09:01:29;;;;;;;1.60;0.70;;;;;;;10.10;100.00;99566.09;6274795;28;20528;-72
2023/11/06 09:04:32;;;;;;;2.20;1.10;;;;;;;10.06;100.00;99571.69;6272727;28;20045;-72
2023/11/06 09:07:34;;;;;;;2.70;0.90;;;;;;;10.03;100.00;99580.59;6273975;28;20048;-73
2023/11/06 09:10:36;;;;;;;2.85;1.30;;;;;;;10.05;100.00;99581.34;6274624;28;20045;-73
2023/11/06 09:13:39;;;;;;;3.45;1.10;;;;;;;10.15;100.00;99579.75;6274415;28;20139;-73
2023/11/06 09:16:41;;;;;;;3.10;1.33;;;;;;;10.09;100.00;99598.56;6274800;28;20430;-72
2023/11/06 09:19:42;;;;;;;3.85;1.63;;;;;;;10.14;100.00;99591.19;6274755;28;20045;-72
2023/11/06 09:22:44;;;;;;;3.83;2.15;;;;;;;10.13;100.00;99586.91;6274476;28;20447;-72
2023/11/06 09:25:45;;;;;;;2.13;1.40;;;;;;;10.09;100.00;99601.19;6278486;28;20048;-73
2023/11/06 09:28:48;;;;;;;3.78;1.25;;;;;;;10.08;100.00;99603.91;6274999;28;20056;-71
2023/11/06 09:31:51;;;;;;;7.93;1.48;;;;;;;10.09;100.00;99619.56;6274524;28;20057;-73
2023/11/06 09:34:52;;;;;;;3.65;1.60;;;;;;;10.13;100.00;99623.66;6274281;28;20049;-73
2023/11/06 09:37:54;;;;;;;5.65;1.33;;;;;;;10.15;100.00;99627.00;6256578;28;20053;-73
2023/11/06 09:40:55;;;;;;;5.55;1.92;;;;;;;10.20;100.00;99634.56;6256990;28;20052;-73
2023/11/06 09:43:58;;;;;;;7.78;1.80;;;;;;;10.26;100.00;99636.78;6260393;28;20239;-74
2023/11/06 09:47:04;;;;;;;2.92;1.42;;;;;;;10.28;100.00;99631.44;6268163;28;20056;-73
2023/11/06 09:50:13;;;;;;;9.85;2.10;;;;;;;10.29;100.00;99641.81;6266653;28;20179;-74
2023/11/06 09:53:17;;;;;;;5.05;1.63;;;;;;;10.28;100.00;99647.19;6267804;28;20053;-72
2023/11/06 09:56:19;;;;;;;11.02;2.08;;;;;;;10.30;100.00;99640.03;6269186;28;20407;-73
2023/11/06 09:59:23;;;;;;;5.93;2.15;;;;;;;10.36;100.00;99647.50;6268106;28;20059;-73
2023/11/06 10:02:24;;;;;;;7.43;1.60;;;;;;;10.31;100.00;99644.34;6270242;28;20059;-72
2023/11/06 10:05:27;;;;;;;4.57;1.85;;;;;;;10.33;100.00;99647.72;6278917;28;20349;-73
2023/11/06 10:08:29;;;;;;;7.05;1.60;;;;;;;10.36;100.00;99655.38;6278821;28;20057;-73
2023/11/06 10:11:31;;;;;;;3.53;1.80;;;;;;;10.38;100.00;99648.22;6257878;28;20457;-73
2023/11/06 10:14:38;;;;;;;7.13;1.98;;;;;;;10.50;100.00;99643.91;6266206;28;20037;-75
2023/11/06 10:17:40;;;;;;;5.68;1.90;;;;;;;10.60;100.00;99664.16;6266056;28;20049;-73
2023/11/06 10:20:43;;;;;;;5.68;1.90;;;;;;;10.61;100.00;99647.44;6266629;28;20116;-72
2023/11/06 10:23:46;;;;;;;12.80;2.25;;;;;;;10.72;100.00;99662.44;6266244;28;20335;-73
2023/11/06 10:26:47;;;;;;;6.40;1.83;;;;;;;10.71;100.00;99655.50;6264690;28;20037;-72
2023/11/06 10:29:59;;;;;;;12.50;1.90;;;;;;;10.77;100.00;99654.25;6264535;28;20063;-73
2023/11/06 10:33:13;;;;;;;5.20;1.77;;;;;;;10.82;100.00;99655.59;6265213;28;20437;-75
2023/11/06 10:36:15;;;;;;;5.70;1.80;;;;;;;10.94;100.00;99656.47;6266644;28;20044;-74
2023/11/06 10:39:18;;;;;;;5.70;2.35;;;;;;;10.91;100.00;99656.72;6265394;28;20049;-75
2023/11/06 10:42:21;;;;;;;2.08;1.73;;;;;;;11.05;100.00;99655.72;6264969;28;20060;-74
2023/11/06 10:45:26;;;;;;;10.95;2.33;;;;;;;11.26;100.00;99662.00;6266171;28;20088;-76
2023/11/06 10:48:34;;;;;;;2.85;1.27;;;;;;;11.27;100.00;99665.50;6264632;28;20048;-74
2023/11/06 10:51:37;;;;;;;6.72;2.35;;;;;;;11.36;100.00;99656.94;6270391;28;20045;-75
2023/11/06 10:54:40;;;;;;;6.03;1.58;;;;;;;11.46;100.00;99660.56;6277969;28;20139;-73
2023/11/06 10:57:44;;;;;;;7.28;1.67;;;;;;;11.55;100.00;99659.88;6275282;28;20134;-72
2023/11/06 11:00:47;;;;;;;7.75;2.58;;;;;;;11.64;100.00;99664.44;6271010;28;20080;-74
2023/11/06 11:03:52;;;;;;;8.77;1.65;;;;;;;11.58;100.00;99654.38;6279814;28;20052;-73
2023/11/06 11:06:53;;;;;;;4.03;1.48;;;;;;;11.62;100.00;99673.38;6277378;28;20357;-73
2023/11/06 11:09:55;;;;;;;7.72;1.83;;;;;;;11.58;100.00;99670.16;6277825;28;20045;-74
2023/11/06 11:13:00;;;;;;;5.13;1.52;;;;;;;11.46;100.00;99675.50;6277470;28;20349;-75
2023/11/06 11:16:34;;;;;;;4.82;1.40;;;;;;;11.55;100.00;99686.19;6277998;28;20052;-75
2023/11/06 11:19:37;;;;;;;2.03;1.15;;;;;;;11.48;100.00;99679.69;6276753;28;20088;-73
2023/11/06 11:23:03;;;;;;;3.80;1.30;;;;;;;11.47;100.00;99685.06;6277186;28;20056;-74
2023/11/06 11:26:06;;;;;;;5.38;1.25;;;;;;;11.50;100.00;99675.16;6271786;28;20329;-72
2023/11/06 11:29:09;;;;;;;3.30;1.23;;;;;;;11.47;100.00;99687.69;6283398;28;20045;-74
2023/11/06 11:32:11;;;;;;;5.05;1.00;;;;;;;11.45;100.00;99692.25;6276707;28;20053;-75
2023/11/06 11:36:01;;;;;;;3.90;1.30;;;;;;;11.44;100.00;99683.50;6276948;28;20349;-73
2023/11/06 11:39:13;;;;;;;7.20;1.25;;;;;;;11.33;100.00;99697.44;6277363;28;20433;-73
2023/11/06 11:42:22;;;;;;;7.07;1.35;;;;;;;11.23;100.00;99696.44;6276769;28;20072;-74
2023/11/06 11:45:30;;;;;;;9.63;1.20;;;;;;;11.37;100.00;99698.06;6277196;28;20056;-76
2023/11/06 11:48:50;;;;;;;13.95;1.38;;;;;;;11.29;100.00;99705.66;6276864;28;20045;-73
2023/11/06 11:51:52;;;;;;;4.70;1.20;;;;;;;11.22;100.00;99700.03;6276552;28;20055;-76
2023/11/06 11:54:55;;;;;;;8.73;1.60;;;;;;;11.30;100.00;99713.44;6276830;28;20045;-75
2023/11/06 11:58:04;;;;;;;2.85;1.15;;;;;;;11.41;100.00;99718.78;6276255;28;20133;-76
2023/11/06 12:01:09;;;;;;;;;;;;;;;11.49;100.00;99709.47;6270718;28;20045;-73
2023/11/06 12:04:18;;;;;;;1.80;1.20;;;;;;;11.67;100.00;99732.66;6268284;28;19924;-74
2023/11/06 12:07:19;;;;;;;5.32;1.00;;;;;;;11.74;100.00;99714.59;6274137;28;20048;-72
2023/11/06 12:10:29;;;;;;;8.98;1.65;;;;;;;11.90;100.00;99709.06;6275634;28;20361;-74
2023/11/06 12:13:31;;;;;;;6.78;1.80;;;;;;;12.07;100.00;99715.66;6275997;28;20056;-75
2023/11/06 12:16:32;;;;;;;3.28;1.20;;;;;;;12.04;100.00;99711.47;6276092;28;20067;-75
2023/11/06 12:19:41;;;;;;;8.77;1.52;;;;;;;12.03;100.00;99722.94;6276283;28;20053;-76
2023/11/06 12:22:45;;;;;;;5.07;1.30;;;;;;;12.22;100.00;99709.25;6275979;28;20076;-76
2023/11/06 12:25:49;;;;;;;4.25;1.15;;;;;;;12.27;100.00;99729.97;6276143;28;20194;-76
2023/11/06 12:28:52;;;;;;;6.25;0.85;;;;;;;12.37;100.00;99721.22;6275894;28;20388;-76
2023/11/06 12:31:54;;;;;;;7.65;1.55;;;;;;;12.43;100.00;99727.81;6275784;28;20049;-75
2023/11/06 12:35:14;;;;;;;10.38;1.45;;;;;;;12.47;100.00;99736.31;6275658;28;20365;-77
2023/11/06 12:38:31;;;;;;;3.75;0.93;;;;;;;12.57;100.00;99739.91;6276017;28;20057;-74
2023/11/06 12:41:38;;;;;;;3.78;1.27;;;;;;;12.42;100.00;99742.78;6275673;28;20052;-77
2023/11/06 12:44:40;;;;;;;2.97;0.90;;;;;;;12.36;100.00;99735.34;6275809;28;20045;-75
2023/11/06 12:47:44;;;;;;;8.20;1.20;;;;;;;12.58;100.00;99734.53;6275539;28;20045;-74
2023/11/06 12:50:55;;;;;;;2.10;1.00;;;;;;;12.52;100.00;99737.63;6275315;28;20107;-74
2023/11/06 12:53:56;;;;;;;5.72;0.80;;;;;;;12.65;100.00;99738.34;6275048;28;20049;-72
2023/11/06 12:56:59;;;;;;;7.95;0.95;;;;;;;12.72;100.00;99732.59;6274967;28;20464;-72
2023/11/06 13:00:00;;;;;;;4.13;1.10;;;;;;;12.64;100.00;99728.78;6275005;28;20056;-73
2023/11/06 13:03:02;;;;;;;7.60;1.15;;;;;;;12.60;100.00;99731.78;6275116;28;20056;-73
2023/11/06 13:06:04;;;;;;;1.63;0.80;;;;;;;12.62;100.00;99737.75;6274990;28;20049;-73
2023/11/06 13:09:06;;;;;;;4.70;1.00;;;;;;;12.77;100.00;99738.38;6273988;28;20056;-72
2023/11/06 13:12:10;;;;;;;9.32;1.13;;;;;;;12.77;100.00;99739.22;6274625;28;20131;-72
2023/11/06 13:15:11;;;;;;;3.85;0.75;;;;;;;12.63;100.00;99750.00;6275095;28;20187;-72
2023/11/06 13:18:13;;;;;;;3.92;1.20;;;;;;;12.39;100.00;99745.66;6275025;28;20056;-75
2023/11/06 13:21:18;;;;;;;3.20;0.77;;;;;;;12.23;100.00;99741.69;6274529;28;20353;-77
2023/11/06 13:24:20;;;;;;;8.02;1.42;;;;;;;12.00;100.00;99739.00;6274038;28;20064;-76
2023/11/06 13:27:23;;;;;;;3.60;0.65;;;;;;;11.97;100.00;99752.38;6274610;28;20457;-75
2023/11/06 13:30:26;;;;;;;3.80;0.90;;;;;;;12.03;100.00;99756.34;6276046;28;20351;-75
2023/11/06 13:33:27;;;;;;;5.22;1.02;;;;;;;12.03;100.00;99753.72;6280073;28;20045;-73
2023/11/06 13:36:30;;;;;;;4.13;0.73;;;;;;;12.16;100.00;99751.84;6266806;28;20075;-73
2023/11/06 13:39:32;;;;;;;4.18;1.15;;;;;;;12.21;100.00;99746.22;6274619;28;20053;-73
2023/11/06 13:42:35;;;;;;;10.23;0.93;;;;;;;12.19;100.00;99743.72;6286700;28;20049;-73
2023/11/06 13:45:36;;;;;;;5.03;1.10;;;;;;;12.16;100.00;99742.13;6272064;28;20068;-75
2023/11/06 13:48:39;;;;;;;3.67;1.13;;;;;;;12.09;100.00;99748.84;6273172;28;20052;-75
2023/11/06 13:51:42;;;;;;;4.55;1.05;;;;;;;12.12;100.00;99745.13;6283636;28;20055;-75
2023/11/06 13:54:45;;;;;;;7.55;1.40;;;;;;;12.17;100.00;99748.25;6275719;28;20049;-75
2023/11/06 13:57:48;;;;;;;2.13;0.80;;;;;;;12.24;100.00;99746.81;6271706;28;20053;-74
2023/11/06 14:00:55;;;;;;;5.88;1.27;;;;;;;12.25;100.00;99750.28;6278544;28;20060;-73
2023/11/06 14:03:57;;;;;;;4.25;1.20;;;;;;;12.20;100.00;99755.91;6278102;28;20056;-74
2023/11/06 14:06:58;;;;;;;3.25;0.82;;;;;;;12.18;100.00;99749.94;6272034;28;20048;-76
2023/11/06 14:10:00;;;;;;;5.07;1.00;;;;;;;12.14;100.00;99762.50;6274303;28;20049;-76
2023/11/06 14:13:03;;;;;;;6.68;1.35;;;;;;;12.15;100.00;99744.91;6274034;28;20060;-76
2023/11/06 14:16:07;;;;;;;5.03;0.90;;;;;;;12.04;100.00;99750.16;6274309;28;20099;-74